Taynuilt, United Kingdom
Current Conditions -  °F | °C
As of 12:50 AM on Wednesday 22 Oct 2014 (Local Time) from EGPF Reporting Station
Few Clouds Few Clouds  
Wind Chill: 42°   Ceiling: Unl
Heat Index: 48°   Visibility: 6mi
Dew Point: 41°   Wind: 15mph
Humidity: 76%   Direction: 280°W
Pressure: 30"   Gusts: NA
Location:  56.37°N, 5.18°W
Report Text: EGPF 212350Z AUTO 28013KT 9999 FEW031 09/05 Q1016
Loading
Personal Weather Stations






























Interactive Weather Map
Tropical Storm Tracking
New forecast layout! Learn more

10-Day Weather Forecast

Advertisements
Track Severe Weather on mobile